Eureka, AK

6:17 AM AKDT on September 22, 2014 (GMT -0800)
Eureka | Change Station
CLOSE
Current Station
Airport
Location: Eureka,
Elevation: 3287 ft
Nearby Weather Stations

Elev 3287 ft 61.93 °N, 147.17 °W | Updated 21 minutes ago

Overcast
Overcast
34 °F
Feels Like 31 °F
N
4
Wind Variable Wind from ENE

Today
High -- | Low -- °F
--% Chance of Precip.
Yesterday
High -- | Low -- °F
Precip. -- in
7:32 AM 7:48 PM
Waning Crescent, 3% visible
Pressure 29.42 in
Visibility 10.0 miles
Clouds Overcast 4600 ft
Windchill 31 °F
Dew Point 30 °F
Humidity 87%
Rainfall 0.00 in
Snow Depth 1 in , 2 in , 6 in
UV 0 out of 12
Pollen Not available.
Air Quality Not available.
Flu Activity Not available.
METAR PAZK 221356Z AUTO 06003KT 10SM OVC046 01/M01 A2942 RMK AO1

More Conditions Fewer Conditions

Pressure 29.42 in
Visibility 10.0 miles
Clouds Overcast 4600 ft
Windchill 31 °F
Dew Point 30 °F
Humidity 87%
Rainfall 0.00 in
Snow Depth 1 in , 2 in , 6 in
UV 0 out of 12
Pollen Not available.
Air Quality Not available.
Flu Activity Not available.
METAR PAZK 221356Z AUTO 06003KT 10SM OVC046 01/M01 A2942 RMK AO1

More Conditions Fewer Conditions

10-Day Weather Forecast

Almanac

Astronomy

Sep. 22, 2014 Rise Set
Actual Time 7:32 AM AKDT 7:48 PM AKDT
Civil Twilight 6:48 AM AKDT 8:32 PM AKDT
Nautical Twilight 5:54 AM AKDT 9:25 PM AKDT
Astronomical Twilight 4:54 AM AKDT 10:24 PM AKDT
Moon 5:54 AM AKDT 7:07 PM AKDT
Length of Visible Light 13h 43m
Length of Day
12h 15m
Tomorrow will be 5m 50s shorter.
Waning Crescent, 3% of the Moon is Illuminated
Today
Waning Crescent
Sep 24
New
Oct 1
First Quarter
Oct 8
Full
Oct 15
Last Quarter

Today's Extremes

State Highs State Lows

Community

WunderPhotos

Upload Photos

1,755,444 photos uploaded!

WunderBlogs® & News

By Dr. Jeff Masters
Director of Meteorology, Weather Underground
By Kari Strenfel
Meteorologist, Weather Underground
By Christopher C. Burt
Weather Historian, Weather Underground
September 22, 2014
September 22, 2014
September 22, 2014

Nearby

Snow Depth

Station Depth Elevation
Long Lake 1 in 820 ft
Turnagain Pass 2 in 1880 ft
Port Graham 0 in 300 ft
Grouse Creek Divide 1 in 700 ft
Rocky Point 6 in 500 ft

Earthquake Activity

City Distance Mag. Time & Date
No recent earthquake activity has been reported nearby.
Minimum magnitude displayed is 2.5.

Coastal Water Temperatures

Place Temperature
No Stations Reporting

Nearby Weather Stations